createdAt,value
2023-02-26T00:01:44.357Z,100.20
2023-02-26T00:04:12.784Z,117.90
2023-02-26T00:06:54.018Z,104.80
2023-02-26T00:09:24.967Z,102.85
2023-02-26T00:11:53.180Z,102.38
2023-02-26T00:14:21.540Z,93.80
2023-02-26T00:17:18.511Z,89.05
2023-02-26T00:19:47.184Z,95.90
2023-02-26T00:22:15.455Z,106.63
2023-02-26T00:24:43.545Z,95.82
2023-02-26T00:27:12.665Z,93.45
2023-02-26T00:29:41.727Z,102.97
2023-02-26T00:32:10.795Z,104.25
2023-02-26T00:34:40.703Z,101.32
2023-02-26T00:37:13.994Z,98.78
2023-02-26T00:39:45.079Z,106.38
2023-02-26T00:42:14.535Z,100.75
2023-02-26T00:44:43.348Z,104.78
2023-02-26T00:47:30.683Z,98.15
2023-02-26T00:50:22.246Z,101.65
2023-02-26T00:53:27.396Z,108.13
2023-02-26T00:55:55.440Z,108.03
2023-02-26T00:58:23.292Z,103.93
2023-02-26T01:00:51.407Z,111.18
2023-02-26T01:03:19.456Z,102.97
2023-02-26T01:05:47.735Z,96.70
2023-02-26T01:08:36.275Z,96.65
2023-02-26T01:11:04.946Z,99.55
2023-02-26T01:13:33.084Z,105.30
2023-02-26T01:16:09.138Z,103.72
2023-02-26T01:19:13.628Z,91.80
2023-02-26T01:21:47.627Z,111.60
2023-02-26T01:24:19.611Z,104.13
2023-02-26T01:26:50.135Z,94.80
2023-02-26T01:29:18.266Z,94.82
2023-02-26T01:32:08.761Z,95.93
2023-02-26T01:34:49.070Z,103.32
2023-02-26T01:37:28.735Z,102.97
2023-02-26T01:40:28.366Z,97.07
2023-02-26T01:43:10.478Z,103.20
2023-02-26T01:46:18.643Z,87.07
2023-02-26T01:48:58.984Z,88.03
2023-02-26T01:51:45.222Z,76.88
2023-02-26T01:54:14.669Z,76.10
2023-02-26T01:56:45.831Z,74.85
2023-02-26T01:59:17.149Z,75.55
2023-02-26T02:01:45.581Z,82.93
2023-02-26T02:04:16.353Z,84.68
2023-02-26T02:06:45.113Z,97.85
2023-02-26T02:09:14.151Z,89.82
2023-02-26T02:12:19.337Z,83.68
2023-02-26T02:15:13.966Z,93.55
2023-02-26T02:17:51.158Z,93.97
2023-02-26T02:20:29.457Z,89.10
2023-02-26T02:23:20.461Z,93.82
2023-02-26T02:26:16.420Z,85.63
2023-02-26T02:28:50.266Z,90.28
2023-02-26T02:31:25.519Z,85.75
2023-02-26T02:33:56.992Z,61.22
2023-02-26T02:36:52.061Z,55.13
2023-02-26T02:39:28.358Z,41.25
2023-02-26T02:42:24.233Z,33.38
2023-02-26T02:44:59.261Z,27.80
2023-02-26T02:47:31.624Z,10.90
2023-02-26T02:50:12.724Z,25.90
2023-02-26T02:53:04.418Z,19.15
2023-02-26T02:55:47.927Z,20.02
2023-02-26T03:00:55.160Z,11.15
2023-02-26T03:03:38.739Z,14.47
2023-02-26T03:06:06.966Z,8.63
2023-02-26T03:08:40.635Z,8.63
2023-02-26T03:11:10.465Z,4.00
2023-02-26T03:13:41.501Z,2.13
2023-02-26T03:16:43.063Z,7.70
2023-02-26T03:19:24.181Z,6.82
2023-02-26T03:22:11.638Z,6.50
2023-02-26T03:25:25.349Z,4.93
2023-02-26T03:27:57.204Z,3.58
2023-02-26T03:30:42.985Z,25.95
2023-02-26T03:33:27.514Z,1.35
2023-02-26T03:36:01.885Z,7.85
2023-02-26T03:38:52.901Z,2.88
2023-02-26T03:42:04.832Z,8.05
2023-02-26T03:44:49.753Z,1.35
2023-02-26T03:47:17.998Z,10.23
2023-02-26T03:49:59.139Z,9.45
2023-02-26T03:52:33.122Z,4.00
2023-02-26T03:55:17.975Z,2.30
2023-02-26T03:58:12.333Z,1.88
2023-02-26T04:00:57.531Z,7.95
2023-02-26T04:03:42.206Z,6.15
2023-02-26T04:06:10.863Z,4.20
2023-02-26T04:08:41.425Z,1.80
2023-02-26T04:11:12.706Z,7.25
2023-02-26T04:13:40.964Z,3.10
2023-02-26T04:16:08.907Z,3.17
2023-02-26T04:18:37.394Z,4.28
2023-02-26T04:21:07.442Z,4.55
2023-02-26T04:23:35.592Z,10.50
2023-02-26T04:26:03.494Z,12.43
2023-02-26T04:28:32.650Z,13.45
2023-02-26T04:31:00.572Z,13.95
2023-02-26T04:33:29.006Z,15.68
2023-02-26T04:35:56.844Z,7.63
2023-02-26T04:38:26.875Z,3.22
2023-02-26T04:40:55.558Z,2.25
2023-02-26T04:43:25.019Z,12.48
2023-02-26T04:46:07.687Z,0.80
2023-02-26T04:48:37.717Z,2.63
2023-02-26T04:51:05.937Z,1.17
2023-02-26T04:53:34.626Z,2.15
2023-02-26T04:56:02.470Z,1.83
2023-02-26T04:58:30.731Z,5.55
2023-02-26T05:01:04.839Z,4.63
2023-02-26T05:03:32.961Z,7.30
2023-02-26T05:06:00.770Z,9.30
2023-02-26T05:08:29.086Z,3.13
2023-02-26T05:10:57.561Z,3.05
2023-02-26T05:13:25.439Z,2.22
2023-02-26T05:15:55.115Z,0.20
2023-02-26T05:18:24.789Z,1.02
2023-02-26T05:20:55.294Z,0.40
2023-02-26T05:23:23.652Z,6.35
2023-02-26T05:25:51.835Z,1.17
2023-02-26T05:28:19.828Z,1.92
2023-02-26T05:30:47.993Z,1.58
2023-02-26T05:33:15.845Z,5.38
2023-02-26T05:35:44.150Z,1.05
2023-02-26T05:38:12.121Z,2.20
2023-02-26T05:40:40.302Z,4.22
2023-02-26T05:43:08.312Z,0.30
2023-02-26T05:45:37.021Z,0.45
2023-02-26T05:48:05.016Z,0.40
2023-02-26T05:50:33.392Z,2.15
2023-02-26T05:53:01.192Z,0.30
2023-02-26T05:55:29.550Z,5.10
2023-02-26T05:57:57.389Z,2.10
2023-02-26T06:00:25.646Z,1.95
2023-02-26T06:02:53.584Z,0.73
2023-02-26T06:05:21.748Z,0.50
2023-02-26T06:07:49.570Z,1.80
2023-02-26T06:10:17.982Z,0.70
2023-02-26T06:12:45.877Z,1.40
2023-02-26T06:15:13.992Z,0.80
2023-02-26T06:17:42.148Z,1.15
2023-02-26T06:20:11.367Z,4.68
2023-02-26T06:22:39.584Z,0.52
2023-02-26T06:25:08.367Z,2.33
2023-02-26T06:27:36.273Z,8.40
2023-02-26T06:30:05.570Z,0.52
2023-02-26T06:32:34.000Z,0.63
2023-02-26T06:35:02.252Z,0.47
2023-02-26T06:37:30.142Z,2.85
2023-02-26T06:39:58.291Z,2.22
2023-02-26T06:42:26.293Z,2.13
2023-02-26T06:44:54.541Z,4.97
2023-02-26T06:47:23.038Z,0.52
2023-02-26T06:49:51.547Z,0.50
2023-02-26T06:52:20.017Z,3.03
2023-02-26T06:54:48.118Z,0.60
2023-02-26T06:57:15.910Z,2.42
2023-02-26T06:59:44.145Z,0.52
2023-02-26T07:02:22.508Z,2.95
2023-02-26T07:04:50.800Z,0.95
2023-02-26T07:07:18.554Z,0.73
2023-02-26T07:09:46.630Z,0.40
2023-02-26T07:12:14.523Z,0.30
2023-02-26T07:14:46.228Z,0.88
2023-02-26T07:17:21.122Z,3.28
2023-02-26T07:19:51.193Z,3.72
2023-02-26T07:22:21.853Z,1.48
2023-02-26T07:24:51.447Z,1.70
2023-02-26T07:27:19.355Z,2.53
2023-02-26T07:29:47.422Z,1.40
2023-02-26T07:32:15.297Z,0.52
2023-02-26T07:34:43.372Z,2.55
2023-02-26T07:37:11.129Z,0.65
2023-02-26T07:39:39.363Z,0.50
2023-02-26T07:42:07.337Z,0.98
2023-02-26T07:44:35.818Z,0.50
2023-02-26T07:47:04.417Z,1.42
2023-02-26T07:49:34.225Z,1.08
2023-02-26T07:52:02.477Z,1.90
2023-02-26T07:54:30.930Z,1.85
2023-02-26T07:56:58.740Z,2.10
2023-02-26T07:59:26.879Z,1.77
2023-02-26T08:01:55.960Z,6.40
2023-02-26T08:04:24.504Z,0.57
2023-02-26T08:06:54.875Z,0.95
2023-02-26T08:09:23.220Z,1.15
2023-02-26T08:11:51.280Z,1.85
2023-02-26T08:14:19.860Z,0.65
2023-02-26T08:16:47.956Z,0.80
2023-02-26T08:19:16.408Z,0.85
2023-02-26T08:21:44.395Z,0.68
2023-02-26T08:24:13.257Z,1.75
2023-02-26T08:26:41.575Z,2.25
2023-02-26T08:29:10.014Z,0.75
2023-02-26T08:31:38.204Z,1.15
2023-02-26T08:34:06.824Z,4.20
2023-02-26T08:36:34.989Z,3.90
2023-02-26T08:39:03.793Z,1.85
2023-02-26T08:41:32.824Z,1.75
2023-02-26T08:44:01.480Z,1.10
2023-02-26T08:46:29.939Z,3.28
2023-02-26T08:48:58.705Z,1.00
2023-02-26T08:51:27.225Z,1.13
2023-02-26T08:53:57.027Z,0.82
2023-02-26T08:56:25.421Z,2.25
2023-02-26T08:58:53.979Z,3.03
2023-02-26T09:01:22.107Z,0.50
2023-02-26T09:03:50.442Z,6.05
2023-02-26T09:06:18.516Z,0.70
2023-02-26T09:08:47.223Z,1.00
2023-02-26T09:11:15.497Z,1.08
2023-02-26T09:13:43.777Z,3.30
2023-02-26T09:16:11.833Z,1.50
2023-02-26T09:18:40.959Z,1.00
2023-02-26T09:21:09.056Z,1.42
2023-02-26T09:23:37.841Z,8.32
2023-02-26T09:26:06.136Z,5.32
2023-02-26T09:28:35.119Z,1.83
2023-02-26T09:31:03.348Z,1.20
2023-02-26T09:33:31.679Z,1.17
2023-02-26T09:35:59.786Z,3.42
2023-02-26T09:38:28.206Z,0.43
2023-02-26T09:41:06.639Z,0.70
2023-02-26T09:44:12.481Z,0.82
2023-02-26T09:47:02.172Z,0.77
2023-02-26T09:49:34.273Z,9.55
2023-02-26T09:52:29.774Z,2.15
2023-02-26T09:55:06.575Z,2.38
2023-02-26T09:57:41.538Z,3.00
2023-02-26T10:00:31.221Z,0.68
2023-02-26T10:03:30.706Z,0.65
2023-02-26T10:06:23.827Z,1.45
2023-02-26T10:09:06.474Z,1.17
2023-02-26T10:11:53.652Z,1.02
2023-02-26T10:14:42.902Z,15.55
2023-02-26T10:17:29.207Z,1.95
2023-02-26T10:20:04.714Z,0.93
2023-02-26T10:23:07.941Z,1.45
2023-02-26T10:25:47.182Z,2.13
2023-02-26T10:28:41.208Z,1.70
2023-02-26T10:31:22.727Z,1.17
2023-02-26T10:34:27.986Z,1.13
2023-02-26T10:37:04.546Z,5.63
2023-02-26T10:39:54.337Z,7.50
2023-02-26T10:42:26.918Z,0.88
2023-02-26T10:45:04.726Z,2.77
2023-02-26T10:47:51.472Z,3.22
2023-02-26T10:50:22.686Z,3.55
2023-02-26T10:52:52.305Z,1.30
2023-02-26T10:55:26.676Z,0.95
2023-02-26T10:58:15.713Z,1.70
2023-02-26T11:00:51.358Z,1.92
2023-02-26T11:03:24.389Z,6.22
2023-02-26T11:05:52.751Z,5.88
2023-02-26T11:08:31.109Z,2.97
2023-02-26T11:11:05.330Z,2.83
2023-02-26T11:13:35.311Z,16.63
2023-02-26T11:16:16.468Z,9.63
2023-02-26T11:18:49.923Z,1.58
2023-02-26T11:24:08.136Z,1.85
2023-02-26T11:26:39.061Z,0.70
2023-02-26T11:29:07.222Z,4.78
2023-02-26T11:31:35.577Z,1.75
2023-02-26T11:34:06.152Z,2.30
2023-02-26T11:36:37.715Z,5.05
2023-02-26T11:39:09.702Z,1.48
2023-02-26T11:41:39.950Z,4.32
2023-02-26T11:44:42.105Z,1.80
2023-02-26T11:47:18.275Z,3.55
2023-02-26T11:49:52.033Z,7.25
2023-02-26T11:52:28.317Z,1.40
2023-02-26T11:55:02.977Z,1.40
2023-02-26T11:57:33.951Z,2.97
2023-02-26T12:00:17.552Z,1.63
2023-02-26T12:02:47.929Z,1.40
2023-02-26T12:05:18.557Z,2.08
2023-02-26T12:07:49.060Z,1.35
2023-02-26T12:10:29.488Z,6.70
2023-02-26T12:13:35.494Z,11.48
2023-02-26T12:16:20.921Z,1.17
2023-02-26T12:18:57.094Z,4.32
2023-02-26T12:21:43.176Z,5.22
2023-02-26T12:25:08.243Z,1.65
2023-02-26T12:27:36.008Z,1.75
2023-02-26T12:30:30.013Z,1.13
2023-02-26T12:33:06.721Z,2.13
2023-02-26T12:35:53.286Z,1.15
2023-02-26T12:38:29.420Z,1.13
2023-02-26T12:41:09.843Z,3.60
2023-02-26T12:43:49.142Z,5.78
2023-02-26T12:46:29.261Z,6.75
2023-02-26T12:49:21.160Z,1.15
2023-02-26T12:52:04.528Z,5.38
2023-02-26T12:54:53.863Z,6.93
2023-02-26T12:57:38.920Z,4.25
2023-02-26T13:00:35.704Z,4.82
2023-02-26T13:03:30.830Z,0.50
2023-02-26T13:06:20.127Z,0.98
2023-02-26T13:09:25.575Z,1.15
2023-02-26T13:12:29.195Z,1.10
2023-02-26T13:15:00.431Z,5.72
2023-02-26T13:17:55.741Z,1.67
2023-02-26T13:20:29.205Z,2.97
2023-02-26T13:23:02.393Z,1.98
2023-02-26T13:25:55.978Z,2.38
2023-02-26T13:28:42.232Z,2.03
2023-02-26T13:31:27.533Z,1.38
2023-02-26T13:33:59.171Z,3.03
2023-02-26T13:36:29.708Z,1.38
2023-02-26T13:39:05.400Z,2.95
2023-02-26T13:42:18.174Z,1.05
2023-02-26T13:45:04.283Z,1.00
2023-02-26T13:47:35.945Z,1.80
2023-02-26T13:50:25.021Z,1.17
2023-02-26T13:53:06.049Z,3.35
2023-02-26T13:55:36.841Z,0.70
2023-02-26T13:58:23.329Z,1.85
2023-02-26T14:01:05.132Z,1.42
2023-02-26T14:03:50.461Z,2.75
2023-02-26T14:06:26.010Z,4.57
2023-02-26T14:08:57.230Z,5.90
2023-02-26T14:12:00.514Z,1.42
2023-02-26T14:14:41.285Z,0.80
2023-02-26T14:17:09.433Z,2.10
2023-02-26T14:19:52.821Z,0.98
2023-02-26T14:22:26.083Z,0.55
2023-02-26T14:25:13.144Z,1.48
2023-02-26T14:27:44.058Z,1.33
2023-02-26T14:30:12.342Z,1.80
2023-02-26T14:33:10.440Z,10.52
2023-02-26T14:35:51.792Z,5.93
2023-02-26T14:38:31.181Z,2.10
2023-02-26T14:41:23.631Z,4.13
2023-02-26T14:44:01.777Z,3.25
2023-02-26T14:46:30.875Z,0.88
2023-02-26T14:48:58.967Z,9.00
2023-02-26T14:51:58.933Z,8.13
2023-02-26T14:54:49.122Z,15.00
2023-02-26T14:57:20.904Z,12.05
2023-02-26T15:00:18.939Z,8.80
2023-02-26T15:03:15.231Z,9.52
2023-02-26T15:06:02.933Z,4.30
2023-02-26T15:08:40.215Z,12.82
2023-02-26T15:11:41.767Z,6.72
2023-02-26T15:14:29.216Z,6.07
2023-02-26T15:17:25.545Z,2.08
2023-02-26T15:19:56.711Z,8.05
2023-02-26T15:22:40.913Z,3.75
2023-02-26T15:25:30.279Z,3.00
2023-02-26T15:27:58.546Z,8.90
2023-02-26T15:30:29.864Z,8.27
2023-02-26T15:33:06.298Z,3.33
2023-02-26T15:35:35.106Z,3.08
2023-02-26T15:38:04.390Z,2.47
2023-02-26T15:40:35.908Z,4.13
2023-02-26T15:43:08.524Z,2.03
2023-02-26T15:45:57.138Z,2.17
2023-02-26T15:48:32.794Z,3.67
2023-02-26T15:51:04.554Z,11.48
2023-02-26T15:53:46.087Z,3.08
2023-02-26T15:56:24.824Z,3.75
2023-02-26T15:58:58.388Z,5.57
2023-02-26T16:04:08.583Z,4.78
2023-02-26T16:06:40.047Z,2.20
2023-02-26T16:09:15.800Z,2.10
2023-02-26T16:11:46.256Z,1.48
2023-02-26T16:14:22.062Z,1.10
2023-02-26T16:16:53.320Z,5.47
2023-02-26T16:19:33.925Z,1.42
2023-02-26T16:22:08.149Z,1.63
2023-02-26T16:27:09.029Z,4.47
2023-02-26T16:29:37.966Z,0.80
2023-02-26T16:32:12.086Z,3.83
2023-02-26T16:34:44.826Z,1.30
2023-02-26T16:37:34.097Z,2.28
2023-02-26T16:40:16.189Z,2.40
2023-02-26T16:42:53.359Z,3.55
2023-02-26T16:45:36.274Z,2.15
2023-02-26T16:48:14.734Z,9.38
2023-02-26T16:50:43.278Z,7.70
2023-02-26T16:53:18.747Z,9.57
2023-02-26T16:55:52.358Z,6.65
2023-02-26T16:58:23.099Z,20.33
2023-02-26T17:01:01.831Z,19.88
2023-02-26T17:03:30.659Z,8.73
2023-02-26T17:06:03.234Z,9.40
2023-02-26T17:08:43.227Z,9.47
2023-02-26T17:11:21.923Z,4.55
2023-02-26T17:14:25.522Z,6.03
2023-02-26T17:16:53.726Z,6.95
2023-02-26T17:19:22.347Z,8.25
2023-02-26T17:21:54.529Z,4.38
2023-02-26T17:24:36.116Z,5.80
2023-02-26T17:27:05.680Z,2.03
2023-02-26T17:29:37.701Z,2.47
2023-02-26T17:32:07.798Z,3.30
2023-02-26T17:34:36.217Z,2.00
2023-02-26T17:37:07.835Z,5.80
2023-02-26T17:39:36.132Z,6.63
2023-02-26T17:42:04.191Z,2.45
2023-02-26T17:44:32.374Z,6.13
2023-02-26T17:47:00.205Z,4.00
2023-02-26T17:49:28.340Z,2.33
2023-02-26T17:51:56.789Z,1.63
2023-02-26T17:54:24.931Z,6.85
2023-02-26T17:56:52.789Z,8.65
2023-02-26T17:59:20.946Z,4.43
2023-02-26T18:01:48.705Z,4.45
2023-02-26T18:04:17.022Z,4.50
2023-02-26T18:06:45.266Z,15.40
2023-02-26T18:09:13.836Z,2.05
2023-02-26T18:11:42.220Z,3.80
2023-02-26T18:14:11.212Z,6.15
2023-02-26T18:16:41.663Z,8.35
2023-02-26T18:19:14.105Z,3.10
2023-02-26T18:21:41.832Z,1.92
2023-02-26T18:24:10.078Z,4.28
2023-02-26T18:26:37.836Z,3.38
2023-02-26T18:29:06.167Z,4.55
2023-02-26T18:31:35.416Z,3.67
2023-02-26T18:34:04.368Z,6.32
2023-02-26T18:36:35.779Z,5.05
2023-02-26T18:39:06.319Z,4.43
2023-02-26T18:41:34.955Z,4.20
2023-02-26T18:44:03.056Z,4.22
2023-02-26T18:46:30.814Z,5.78
2023-02-26T18:48:58.966Z,5.28
2023-02-26T18:51:27.428Z,2.05
2023-02-26T18:53:55.704Z,3.75
2023-02-26T18:56:23.456Z,12.80
2023-02-26T18:58:51.545Z,7.07
2023-02-26T19:01:19.516Z,4.68
2023-02-26T19:03:47.565Z,3.15
2023-02-26T19:06:15.480Z,3.95
2023-02-26T19:08:43.643Z,4.32
2023-02-26T19:11:11.422Z,2.72
2023-02-26T19:13:39.611Z,3.45
2023-02-26T19:16:07.693Z,8.20
2023-02-26T19:18:35.794Z,2.78
2023-02-26T19:21:06.031Z,2.85
2023-02-26T19:23:34.133Z,4.38
2023-02-26T19:26:01.921Z,5.10
2023-02-26T19:28:30.108Z,5.10
2023-02-26T19:30:57.969Z,3.85
2023-02-26T19:33:26.256Z,4.45
2023-02-26T19:35:54.240Z,5.60
2023-02-26T19:38:23.647Z,4.18
2023-02-26T19:40:51.524Z,6.53
2023-02-26T19:43:19.621Z,5.20
2023-02-26T19:45:47.437Z,3.65
2023-02-26T19:48:15.616Z,4.32
2023-02-26T19:50:43.495Z,8.13
2023-02-26T19:53:11.750Z,4.45
2023-02-26T19:55:39.591Z,5.88
2023-02-26T19:58:07.796Z,6.32
2023-02-26T20:00:35.687Z,2.38
2023-02-26T20:03:04.242Z,3.00
2023-02-26T20:05:32.320Z,7.45
2023-02-26T20:08:00.494Z,9.05
2023-02-26T20:10:34.150Z,3.03
2023-02-26T20:13:09.792Z,4.07
2023-02-26T20:15:40.256Z,2.40
2023-02-26T20:18:10.217Z,2.38
2023-02-26T20:20:46.514Z,5.03
2023-02-26T20:23:24.581Z,2.15
2023-02-26T20:25:59.829Z,2.58
2023-02-26T20:28:35.906Z,4.18
2023-02-26T20:31:10.857Z,2.15
2023-02-26T20:33:42.342Z,2.90
2023-02-26T20:36:13.672Z,6.75
2023-02-26T20:38:44.665Z,6.20
2023-02-26T20:41:16.572Z,5.07
2023-02-26T20:43:46.383Z,2.67
2023-02-26T20:46:14.632Z,5.00
2023-02-26T20:48:44.426Z,2.67
2023-02-26T20:51:14.700Z,2.85
2023-02-26T20:53:46.018Z,3.70
2023-02-26T20:56:16.251Z,3.88
2023-02-26T20:58:45.363Z,4.68
2023-02-26T21:01:13.813Z,2.08
2023-02-26T21:03:42.543Z,3.95
2023-02-26T21:06:12.051Z,5.65
2023-02-26T21:08:40.227Z,7.07
2023-02-26T21:11:08.477Z,3.33
2023-02-26T21:13:36.867Z,3.75
2023-02-26T21:16:05.052Z,5.65
2023-02-26T21:18:34.499Z,4.80
2023-02-26T21:21:05.158Z,6.20
2023-02-26T21:23:33.895Z,5.90
2023-02-26T21:26:01.715Z,4.93
2023-02-26T21:28:29.982Z,4.72
2023-02-26T21:30:57.875Z,6.03
2023-02-26T21:33:26.293Z,2.00
2023-02-26T21:35:54.183Z,3.28
2023-02-26T21:38:22.428Z,3.78
2023-02-26T21:40:50.432Z,3.65
2023-02-26T21:43:18.590Z,5.18
2023-02-26T21:45:48.704Z,1.90
2023-02-26T21:48:17.460Z,2.00
2023-02-26T21:50:47.611Z,3.92
2023-02-26T21:53:15.937Z,6.18
2023-02-26T21:55:43.938Z,2.75
2023-02-26T21:58:12.241Z,4.63
2023-02-26T22:00:40.036Z,5.10
2023-02-26T22:03:08.390Z,6.40
2023-02-26T22:05:36.218Z,4.95
2023-02-26T22:08:04.336Z,2.92
2023-02-26T22:10:32.196Z,3.50
2023-02-26T22:13:00.275Z,3.22
2023-02-26T22:15:28.171Z,2.67
2023-02-26T22:17:56.595Z,2.58
2023-02-26T22:20:24.678Z,4.22
2023-02-26T22:22:53.221Z,3.28
2023-02-26T22:25:21.020Z,3.13
2023-02-26T22:27:49.330Z,1.55
2023-02-26T22:30:17.121Z,2.47
2023-02-26T22:32:46.914Z,3.65
2023-02-26T22:35:15.622Z,2.45
2023-02-26T22:37:44.493Z,7.63
2023-02-26T22:40:14.077Z,3.35
2023-02-26T22:42:45.380Z,5.57
2023-02-26T22:45:17.285Z,1.20
2023-02-26T22:47:46.576Z,3.05
2023-02-26T22:50:16.046Z,3.03
2023-02-26T22:52:44.598Z,1.60
2023-02-26T22:55:13.081Z,1.48
2023-02-26T22:57:41.659Z,3.38
2023-02-26T23:00:15.269Z,1.65
2023-02-26T23:02:43.567Z,3.88
2023-02-26T23:05:11.548Z,2.45
2023-02-26T23:07:40.644Z,3.38
2023-02-26T23:10:11.629Z,10.73
2023-02-26T23:12:39.746Z,4.50
2023-02-26T23:15:09.340Z,1.40
2023-02-26T23:17:37.970Z,1.40
2023-02-26T23:20:10.241Z,1.55
2023-02-26T23:22:38.857Z,4.50
2023-02-26T23:25:06.900Z,1.23
2023-02-26T23:27:35.090Z,1.67
2023-02-26T23:30:03.212Z,1.75
2023-02-26T23:32:32.042Z,1.48
2023-02-26T23:34:59.850Z,5.90
2023-02-26T23:37:28.230Z,0.90
2023-02-26T23:39:56.276Z,10.45
2023-02-26T23:42:24.319Z,1.67
2023-02-26T23:44:52.030Z,1.73
2023-02-26T23:47:20.240Z,2.38
2023-02-26T23:49:47.941Z,2.15
2023-02-26T23:52:17.024Z,1.67
2023-02-26T23:54:44.802Z,2.40
2023-02-26T23:57:12.884Z,3.72
2023-02-26T23:59:40.610Z,1.50
